sensor_id;sensor_type;location;lat;lon;timestamp;temperature;humidity
20364;DHT22;10340;53.664;9.908;2022-11-25T00:01:58;4.10;99.90
20364;DHT22;10340;53.664;9.908;2022-11-25T00:04:26;4.10;99.90
20364;DHT22;10340;53.664;9.908;2022-11-25T00:06:53;4.10;99.90
20364;DHT22;10340;53.664;9.908;2022-11-25T00:09:20;4.10;99.90
20364;DHT22;10340;53.664;9.908;2022-11-25T00:11:47;4.10;99.90
20364;DHT22;10340;53.664;9.908;2022-11-25T00:14:16;4.00;99.90
20364;DHT22;10340;53.664;9.908;2022-11-25T00:16:43;4.00;99.90
20364;DHT22;10340;53.664;9.908;2022-11-25T00:19:10;4.10;99.90
20364;DHT22;10340;53.664;9.908;2022-11-25T00:21:37;4.00;99.90
20364;DHT22;10340;53.664;9.908;2022-11-25T00:24:05;4.10;99.90
20364;DHT22;10340;53.664;9.908;2022-11-25T00:26:34;4.00;99.90
20364;DHT22;10340;53.664;9.908;2022-11-25T00:29:03;4.00;99.90
20364;DHT22;10340;53.664;9.908;2022-11-25T00:31:32;4.00;99.90
20364;DHT22;10340;53.664;9.908;2022-11-25T00:34:00;4.10;99.90
20364;DHT22;10340;53.664;9.908;2022-11-25T00:36:28;4.10;99.90
20364;DHT22;10340;53.664;9.908;2022-11-25T00:38:57;4.00;99.90
20364;DHT22;10340;53.664;9.908;2022-11-25T00:41:26;4.10;99.90
20364;DHT22;10340;53.664;9.908;2022-11-25T00:44:12;4.10;99.90
20364;DHT22;10340;53.664;9.908;2022-11-25T00:46:58;4.10;99.90
20364;DHT22;10340;53.664;9.908;2022-11-25T00:49:26;4.00;99.90
20364;DHT22;10340;53.664;9.908;2022-11-25T00:51:53;4.00;99.90
20364;DHT22;10340;53.664;9.908;2022-11-25T00:54:21;4.00;99.90
20364;DHT22;10340;53.664;9.908;2022-11-25T00:56:48;4.00;99.90
20364;DHT22;10340;53.664;9.908;2022-11-25T00:59:15;4.00;99.90
20364;DHT22;10340;53.664;9.908;2022-11-25T01:01:42;4.00;99.90
20364;DHT22;10340;53.664;9.908;2022-11-25T01:04:10;4.00;99.90
20364;DHT22;10340;53.664;9.908;2022-11-25T01:06:37;4.10;99.90
20364;DHT22;10340;53.664;9.908;2022-11-25T01:09:05;4.20;99.90
20364;DHT22;10340;53.664;9.908;2022-11-25T01:11:32;4.20;99.90
20364;DHT22;10340;53.664;9.908;2022-11-25T01:13:59;4.20;99.90
20364;DHT22;10340;53.664;9.908;2022-11-25T01:16:27;4.20;99.90
20364;DHT22;10340;53.664;9.908;2022-11-25T01:18:54;4.30;99.90
20364;DHT22;10340;53.664;9.908;2022-11-25T01:21:24;4.20;99.90
20364;DHT22;10340;53.664;9.908;2022-11-25T01:23:52;4.20;99.90
20364;DHT22;10340;53.664;9.908;2022-11-25T01:26:21;4.20;99.90
20364;DHT22;10340;53.664;9.908;2022-11-25T01:28:52;4.30;99.90
20364;DHT22;10340;53.664;9.908;2022-11-25T01:31:21;4.30;99.90
20364;DHT22;10340;53.664;9.908;2022-11-25T01:33:52;4.30;99.90
20364;DHT22;10340;53.664;9.908;2022-11-25T01:36:19;4.30;99.90
20364;DHT22;10340;53.664;9.908;2022-11-25T01:38:51;4.30;99.90
20364;DHT22;10340;53.664;9.908;2022-11-25T01:41:19;4.30;99.90
20364;DHT22;10340;53.664;9.908;2022-11-25T01:44:04;4.40;99.90
20364;DHT22;10340;53.664;9.908;2022-11-25T01:46:42;4.30;99.90
20364;DHT22;10340;53.664;9.908;2022-11-25T01:49:13;4.30;99.90
20364;DHT22;10340;53.664;9.908;2022-11-25T01:51:46;4.30;99.90
20364;DHT22;10340;53.664;9.908;2022-11-25T01:54:19;4.40;99.90
20364;DHT22;10340;53.664;9.908;2022-11-25T01:56:50;4.30;99.90
20364;DHT22;10340;53.664;9.908;2022-11-25T01:59:18;4.40;99.90
20364;DHT22;10340;53.664;9.908;2022-11-25T02:01:45;4.30;99.90
20364;DHT22;10340;53.664;9.908;2022-11-25T02:04:13;4.40;99.90
20364;DHT22;10340;53.664;9.908;2022-11-25T02:06:46;4.40;99.90
20364;DHT22;10340;53.664;9.908;2022-11-25T02:09:18;4.40;99.90
20364;DHT22;10340;53.664;9.908;2022-11-25T02:11:45;4.40;99.90
20364;DHT22;10340;53.664;9.908;2022-11-25T02:14:15;4.50;99.90
20364;DHT22;10340;53.664;9.908;2022-11-25T02:16:43;4.50;99.90
20364;DHT22;10340;53.664;9.908;2022-11-25T02:19:17;4.40;99.90
20364;DHT22;10340;53.664;9.908;2022-11-25T02:21:50;4.40;99.90
20364;DHT22;10340;53.664;9.908;2022-11-25T02:24:23;4.40;99.90
20364;DHT22;10340;53.664;9.908;2022-11-25T02:26:52;4.50;99.90
20364;DHT22;10340;53.664;9.908;2022-11-25T02:29:19;4.50;99.90
20364;DHT22;10340;53.664;9.908;2022-11-25T02:31:48;4.50;99.90
20364;DHT22;10340;53.664;9.908;2022-11-25T02:34:15;4.50;99.90
20364;DHT22;10340;53.664;9.908;2022-11-25T02:36:42;4.50;99.90
20364;DHT22;10340;53.664;9.908;2022-11-25T02:39:10;4.40;99.90
20364;DHT22;10340;53.664;9.908;2022-11-25T02:41:40;4.40;99.90
20364;DHT22;10340;53.664;9.908;2022-11-25T02:44:10;4.50;99.90
20364;DHT22;10340;53.664;9.908;2022-11-25T02:46:37;4.40;99.90
20364;DHT22;10340;53.664;9.908;2022-11-25T02:49:04;4.40;99.90
20364;DHT22;10340;53.664;9.908;2022-11-25T02:51:31;4.40;99.90
20364;DHT22;10340;53.664;9.908;2022-11-25T02:53:59;4.40;99.90
20364;DHT22;10340;53.664;9.908;2022-11-25T02:56:28;4.40;99.90
20364;DHT22;10340;53.664;9.908;2022-11-25T02:58:55;4.40;99.90
20364;DHT22;10340;53.664;9.908;2022-11-25T03:01:24;4.40;99.90
20364;DHT22;10340;53.664;9.908;2022-11-25T03:03:51;4.30;99.90
20364;DHT22;10340;53.664;9.908;2022-11-25T03:06:17;4.30;99.90
20364;DHT22;10340;53.664;9.908;2022-11-25T03:08:45;4.30;99.90
20364;DHT22;10340;53.664;9.908;2022-11-25T03:11:12;4.20;99.90
20364;DHT22;10340;53.664;9.908;2022-11-25T03:13:39;4.20;99.90
20364;DHT22;10340;53.664;9.908;2022-11-25T03:16:06;4.10;99.90
20364;DHT22;10340;53.664;9.908;2022-11-25T03:18:35;4.10;99.90
20364;DHT22;10340;53.664;9.908;2022-11-25T03:21:02;4.10;99.90
20364;DHT22;10340;53.664;9.908;2022-11-25T03:23:29;4.10;99.90
20364;DHT22;10340;53.664;9.908;2022-11-25T03:25:56;4.10;99.90
20364;DHT22;10340;53.664;9.908;2022-11-25T03:28:23;4.10;99.90
20364;DHT22;10340;53.664;9.908;2022-11-25T03:30:50;4.20;99.90
20364;DHT22;10340;53.664;9.908;2022-11-25T03:33:17;4.00;99.90
20364;DHT22;10340;53.664;9.908;2022-11-25T03:35:47;4.00;99.90
20364;DHT22;10340;53.664;9.908;2022-11-25T03:38:14;4.00;99.90
20364;DHT22;10340;53.664;9.908;2022-11-25T03:40:41;4.00;99.90
20364;DHT22;10340;53.664;9.908;2022-11-25T03:43:08;4.00;99.90
20364;DHT22;10340;53.664;9.908;2022-11-25T03:45:35;4.10;99.90
20364;DHT22;10340;53.664;9.908;2022-11-25T03:48:02;4.00;99.90
20364;DHT22;10340;53.664;9.908;2022-11-25T03:50:29;4.00;99.90
20364;DHT22;10340;53.664;9.908;2022-11-25T03:52:58;4.00;99.90
20364;DHT22;10340;53.664;9.908;2022-11-25T03:55:25;4.00;99.90
20364;DHT22;10340;53.664;9.908;2022-11-25T03:57:52;4.00;99.90
20364;DHT22;10340;53.664;9.908;2022-11-25T04:00:19;4.00;99.90
20364;DHT22;10340;53.664;9.908;2022-11-25T04:02:46;4.00;99.90
20364;DHT22;10340;53.664;9.908;2022-11-25T04:05:13;3.90;99.90
20364;DHT22;10340;53.664;9.908;2022-11-25T04:07:40;3.90;99.90
20364;DHT22;10340;53.664;9.908;2022-11-25T04:10:09;3.90;99.90
20364;DHT22;10340;53.664;9.908;2022-11-25T04:12:37;3.90;99.90
20364;DHT22;10340;53.664;9.908;2022-11-25T04:15:12;3.90;99.90
20364;DHT22;10340;53.664;9.908;2022-11-25T04:17:40;3.90;99.90
20364;DHT22;10340;53.664;9.908;2022-11-25T04:20:08;3.90;99.90
20364;DHT22;10340;53.664;9.908;2022-11-25T04:22:35;3.90;99.90
20364;DHT22;10340;53.664;9.908;2022-11-25T04:25:02;3.90;99.90
20364;DHT22;10340;53.664;9.908;2022-11-25T04:27:31;3.90;99.90
20364;DHT22;10340;53.664;9.908;2022-11-25T04:29:58;3.90;99.90
20364;DHT22;10340;53.664;9.908;2022-11-25T04:32:25;3.90;99.90
20364;DHT22;10340;53.664;9.908;2022-11-25T04:34:52;3.80;99.90
20364;DHT22;10340;53.664;9.908;2022-11-25T04:37:20;3.80;99.90
20364;DHT22;10340;53.664;9.908;2022-11-25T04:39:47;3.90;99.90
20364;DHT22;10340;53.664;9.908;2022-11-25T04:42:14;3.80;99.90
20364;DHT22;10340;53.664;9.908;2022-11-25T04:45:04;3.80;99.90
20364;DHT22;10340;53.664;9.908;2022-11-25T04:47:32;3.80;99.90
20364;DHT22;10340;53.664;9.908;2022-11-25T04:49:59;3.80;99.90
20364;DHT22;10340;53.664;9.908;2022-11-25T04:52:26;3.80;99.90
20364;DHT22;10340;53.664;9.908;2022-11-25T04:54:53;3.80;99.90
20364;DHT22;10340;53.664;9.908;2022-11-25T04:57:21;3.80;99.90
20364;DHT22;10340;53.664;9.908;2022-11-25T04:59:48;3.80;99.90
20364;DHT22;10340;53.664;9.908;2022-11-25T05:02:19;3.90;99.90
20364;DHT22;10340;53.664;9.908;2022-11-25T05:04:48;3.90;99.90
20364;DHT22;10340;53.664;9.908;2022-11-25T05:07:17;3.90;99.90
20364;DHT22;10340;53.664;9.908;2022-11-25T05:09:44;3.90;99.90
20364;DHT22;10340;53.664;9.908;2022-11-25T05:12:15;3.80;99.90
20364;DHT22;10340;53.664;9.908;2022-11-25T05:14:42;3.80;99.90
20364;DHT22;10340;53.664;9.908;2022-11-25T05:17:12;3.80;99.90
20364;DHT22;10340;53.664;9.908;2022-11-25T05:19:41;3.90;99.90
20364;DHT22;10340;53.664;9.908;2022-11-25T05:22:09;3.90;99.90
20364;DHT22;10340;53.664;9.908;2022-11-25T05:24:37;3.90;99.90
20364;DHT22;10340;53.664;9.908;2022-11-25T05:27:05;3.90;99.90
20364;DHT22;10340;53.664;9.908;2022-11-25T05:29:32;3.90;99.90
20364;DHT22;10340;53.664;9.908;2022-11-25T05:31:59;3.90;99.90
20364;DHT22;10340;53.664;9.908;2022-11-25T05:34:26;3.90;99.90
20364;DHT22;10340;53.664;9.908;2022-11-25T05:36:55;3.90;99.90
20364;DHT22;10340;53.664;9.908;2022-11-25T05:39:22;4.00;99.90
20364;DHT22;10340;53.664;9.908;2022-11-25T05:41:49;4.10;99.90
20364;DHT22;10340;53.664;9.908;2022-11-25T05:44:16;4.10;99.90
20364;DHT22;10340;53.664;9.908;2022-11-25T05:46:43;4.10;99.90
20364;DHT22;10340;53.664;9.908;2022-11-25T05:49:11;4.20;99.90
20364;DHT22;10340;53.664;9.908;2022-11-25T05:51:38;4.20;99.90
20364;DHT22;10340;53.664;9.908;2022-11-25T05:54:06;4.30;99.90
20364;DHT22;10340;53.664;9.908;2022-11-25T05:56:33;4.30;99.90
20364;DHT22;10340;53.664;9.908;2022-11-25T05:59:01;4.30;99.90
20364;DHT22;10340;53.664;9.908;2022-11-25T06:01:29;4.30;99.90
20364;DHT22;10340;53.664;9.908;2022-11-25T06:03:58;4.40;99.90
20364;DHT22;10340;53.664;9.908;2022-11-25T06:06:26;4.40;99.90
20364;DHT22;10340;53.664;9.908;2022-11-25T06:08:53;4.40;99.90
20364;DHT22;10340;53.664;9.908;2022-11-25T06:11:22;4.50;99.90
20364;DHT22;10340;53.664;9.908;2022-11-25T06:13:50;4.50;99.90
20364;DHT22;10340;53.664;9.908;2022-11-25T06:16:19;4.50;99.90
20364;DHT22;10340;53.664;9.908;2022-11-25T06:18:46;4.50;99.90
20364;DHT22;10340;53.664;9.908;2022-11-25T06:21:13;4.50;99.90
20364;DHT22;10340;53.664;9.908;2022-11-25T06:23:41;4.50;99.90
20364;DHT22;10340;53.664;9.908;2022-11-25T06:26:12;4.40;99.90
20364;DHT22;10340;53.664;9.908;2022-11-25T06:28:41;4.40;99.90
20364;DHT22;10340;53.664;9.908;2022-11-25T06:31:11;4.40;99.90
20364;DHT22;10340;53.664;9.908;2022-11-25T06:33:38;4.50;99.90
20364;DHT22;10340;53.664;9.908;2022-11-25T06:36:08;4.50;99.90
20364;DHT22;10340;53.664;9.908;2022-11-25T06:38:38;4.50;99.90
20364;DHT22;10340;53.664;9.908;2022-11-25T06:41:05;4.50;99.90
20364;DHT22;10340;53.664;9.908;2022-11-25T06:43:32;4.50;99.90
20364;DHT22;10340;53.664;9.908;2022-11-25T06:46:05;4.50;99.90
20364;DHT22;10340;53.664;9.908;2022-11-25T06:48:33;4.50;99.90
20364;DHT22;10340;53.664;9.908;2022-11-25T06:51:04;4.40;99.90
20364;DHT22;10340;53.664;9.908;2022-11-25T06:53:32;4.40;99.90
20364;DHT22;10340;53.664;9.908;2022-11-25T06:56:04;4.50;99.90
20364;DHT22;10340;53.664;9.908;2022-11-25T06:58:31;4.50;99.90
20364;DHT22;10340;53.664;9.908;2022-11-25T07:01:04;4.50;99.90
20364;DHT22;10340;53.664;9.908;2022-11-25T07:03:31;4.50;99.90
20364;DHT22;10340;53.664;9.908;2022-11-25T07:05:59;4.60;99.90
20364;DHT22;10340;53.664;9.908;2022-11-25T07:08:26;4.60;99.90
20364;DHT22;10340;53.664;9.908;2022-11-25T07:10:54;4.60;99.90
20364;DHT22;10340;53.664;9.908;2022-11-25T07:13:21;4.60;99.90
20364;DHT22;10340;53.664;9.908;2022-11-25T07:15:48;4.70;99.90
20364;DHT22;10340;53.664;9.908;2022-11-25T07:18:16;4.70;99.90
20364;DHT22;10340;53.664;9.908;2022-11-25T07:20:43;4.70;99.90
20364;DHT22;10340;53.664;9.908;2022-11-25T07:23:10;4.70;99.90
20364;DHT22;10340;53.664;9.908;2022-11-25T07:25:37;4.80;99.90
20364;DHT22;10340;53.664;9.908;2022-11-25T07:28:04;4.80;99.90
20364;DHT22;10340;53.664;9.908;2022-11-25T07:30:31;4.90;99.90
20364;DHT22;10340;53.664;9.908;2022-11-25T07:32:58;4.90;99.90
20364;DHT22;10340;53.664;9.908;2022-11-25T07:35:27;4.90;99.90
20364;DHT22;10340;53.664;9.908;2022-11-25T07:37:54;4.90;99.90
20364;DHT22;10340;53.664;9.908;2022-11-25T07:40:22;4.90;99.90
20364;DHT22;10340;53.664;9.908;2022-11-25T07:42:49;4.90;99.90
20364;DHT22;10340;53.664;9.908;2022-11-25T07:45:16;4.90;99.90
20364;DHT22;10340;53.664;9.908;2022-11-25T07:47:43;4.80;99.90
20364;DHT22;10340;53.664;9.908;2022-11-25T07:50:10;4.80;99.90
20364;DHT22;10340;53.664;9.908;2022-11-25T07:52:39;4.80;99.90
20364;DHT22;10340;53.664;9.908;2022-11-25T07:55:07;4.80;99.90
20364;DHT22;10340;53.664;9.908;2022-11-25T07:57:34;4.80;99.90
20364;DHT22;10340;53.664;9.908;2022-11-25T08:00:02;4.90;99.90
20364;DHT22;10340;53.664;9.908;2022-11-25T08:02:29;4.90;99.90
20364;DHT22;10340;53.664;9.908;2022-11-25T08:04:56;4.90;99.90
20364;DHT22;10340;53.664;9.908;2022-11-25T08:07:23;5.10;99.90
20364;DHT22;10340;53.664;9.908;2022-11-25T08:09:51;5.00;99.90
20364;DHT22;10340;53.664;9.908;2022-11-25T08:12:18;5.10;99.90
20364;DHT22;10340;53.664;9.908;2022-11-25T08:14:45;5.20;99.90
20364;DHT22;10340;53.664;9.908;2022-11-25T08:17:12;5.20;99.90
20364;DHT22;10340;53.664;9.908;2022-11-25T08:19:39;5.20;99.90
20364;DHT22;10340;53.664;9.908;2022-11-25T08:22:06;5.20;99.90
20364;DHT22;10340;53.664;9.908;2022-11-25T08:24:33;5.20;99.90
20364;DHT22;10340;53.664;9.908;2022-11-25T08:27:01;5.20;99.90
20364;DHT22;10340;53.664;9.908;2022-11-25T08:29:28;5.20;99.90
20364;DHT22;10340;53.664;9.908;2022-11-25T08:31:55;5.30;99.90
20364;DHT22;10340;53.664;9.908;2022-11-25T08:34:23;5.30;99.90
20364;DHT22;10340;53.664;9.908;2022-11-25T08:36:51;5.30;99.90
20364;DHT22;10340;53.664;9.908;2022-11-25T08:39:19;5.30;99.90
20364;DHT22;10340;53.664;9.908;2022-11-25T08:41:46;5.40;99.90
20364;DHT22;10340;53.664;9.908;2022-11-25T08:44:15;5.40;99.90
20364;DHT22;10340;53.664;9.908;2022-11-25T08:46:42;5.40;99.90
20364;DHT22;10340;53.664;9.908;2022-11-25T08:49:11;5.40;99.90
20364;DHT22;10340;53.664;9.908;2022-11-25T08:51:38;5.40;99.90
20364;DHT22;10340;53.664;9.908;2022-11-25T08:54:06;5.50;99.90
20364;DHT22;10340;53.664;9.908;2022-11-25T08:56:34;5.50;99.90
20364;DHT22;10340;53.664;9.908;2022-11-25T08:59:02;5.50;99.90
20364;DHT22;10340;53.664;9.908;2022-11-25T09:01:31;5.50;99.90
20364;DHT22;10340;53.664;9.908;2022-11-25T09:03:58;5.50;99.90
20364;DHT22;10340;53.664;9.908;2022-11-25T09:06:27;5.50;99.90
20364;DHT22;10340;53.664;9.908;2022-11-25T09:08:56;5.50;99.90
20364;DHT22;10340;53.664;9.908;2022-11-25T09:11:24;5.60;99.90
20364;DHT22;10340;53.664;9.908;2022-11-25T09:13:51;5.60;99.90
20364;DHT22;10340;53.664;9.908;2022-11-25T09:16:18;5.60;99.90
20364;DHT22;10340;53.664;9.908;2022-11-25T09:18:47;5.60;99.90
20364;DHT22;10340;53.664;9.908;2022-11-25T09:21:15;5.70;99.90
20364;DHT22;10340;53.664;9.908;2022-11-25T09:23:43;5.70;99.90
20364;DHT22;10340;53.664;9.908;2022-11-25T09:26:21;5.80;99.90
20364;DHT22;10340;53.664;9.908;2022-11-25T09:28:48;5.80;99.90
20364;DHT22;10340;53.664;9.908;2022-11-25T09:31:15;5.80;99.90
20364;DHT22;10340;53.664;9.908;2022-11-25T09:33:43;5.80;99.90
20364;DHT22;10340;53.664;9.908;2022-11-25T09:36:13;5.80;99.90
20364;DHT22;10340;53.664;9.908;2022-11-25T09:38:41;5.80;99.90
20364;DHT22;10340;53.664;9.908;2022-11-25T09:41:18;5.80;99.90
20364;DHT22;10340;53.664;9.908;2022-11-25T09:44:19;5.70;99.90
20364;DHT22;10340;53.664;9.908;2022-11-25T09:47:13;5.80;99.90
20364;DHT22;10340;53.664;9.908;2022-11-25T09:49:56;5.80;99.90
20364;DHT22;10340;53.664;9.908;2022-11-25T09:52:34;5.80;99.90
20364;DHT22;10340;53.664;9.908;2022-11-25T09:55:04;5.80;99.90
20364;DHT22;10340;53.664;9.908;2022-11-25T09:57:54;5.80;99.90
20364;DHT22;10340;53.664;9.908;2022-11-25T10:00:22;5.80;99.90
20364;DHT22;10340;53.664;9.908;2022-11-25T10:03:00;5.80;99.90
20364;DHT22;10340;53.664;9.908;2022-11-25T10:05:32;5.80;99.90
20364;DHT22;10340;53.664;9.908;2022-11-25T10:08:08;5.80;99.90
20364;DHT22;10340;53.664;9.908;2022-11-25T10:10:42;5.80;99.90
20364;DHT22;10340;53.664;9.908;2022-11-25T10:13:16;5.80;99.90
20364;DHT22;10340;53.664;9.908;2022-11-25T10:15:49;5.90;99.90
20364;DHT22;10340;53.664;9.908;2022-11-25T10:18:22;5.90;99.90
20364;DHT22;10340;53.664;9.908;2022-11-25T10:20:52;5.90;99.90
20364;DHT22;10340;53.664;9.908;2022-11-25T10:23:26;5.10;99.90
20364;DHT22;10340;53.664;9.908;2022-11-25T10:25:56;6.00;99.90
20364;DHT22;10340;53.664;9.908;2022-11-25T10:28:29;6.00;99.90
20364;DHT22;10340;53.664;9.908;2022-11-25T10:31:02;6.00;99.90
20364;DHT22;10340;53.664;9.908;2022-11-25T10:33:31;6.20;99.90
20364;DHT22;10340;53.664;9.908;2022-11-25T10:36:15;6.20;99.90
20364;DHT22;10340;53.664;9.908;2022-11-25T10:38:51;6.30;99.90
20364;DHT22;10340;53.664;9.908;2022-11-25T10:41:25;6.40;99.90
20364;DHT22;10340;53.664;9.908;2022-11-25T10:43:52;6.50;99.90
20364;DHT22;10340;53.664;9.908;2022-11-25T10:46:29;6.50;99.90
20364;DHT22;10340;53.664;9.908;2022-11-25T10:49:00;6.60;99.90
20364;DHT22;10340;53.664;9.908;2022-11-25T10:51:36;6.60;99.90
20364;DHT22;10340;53.664;9.908;2022-11-25T10:54:14;6.60;99.90
20364;DHT22;10340;53.664;9.908;2022-11-25T10:56:43;6.70;99.90
20364;DHT22;10340;53.664;9.908;2022-11-25T10:59:21;6.60;99.90
20364;DHT22;10340;53.664;9.908;2022-11-25T11:01:51;6.70;99.90
20364;DHT22;10340;53.664;9.908;2022-11-25T11:04:19;6.70;99.90
20364;DHT22;10340;53.664;9.908;2022-11-25T11:06:48;6.70;99.90
20364;DHT22;10340;53.664;9.908;2022-11-25T11:09:35;6.80;99.90
20364;DHT22;10340;53.664;9.908;2022-11-25T11:12:13;6.70;99.90
20364;DHT22;10340;53.664;9.908;2022-11-25T11:14:41;6.70;99.90
20364;DHT22;10340;53.664;9.908;2022-11-25T11:17:26;6.80;99.90
20364;DHT22;10340;53.664;9.908;2022-11-25T11:22:46;6.80;99.90
20364;DHT22;10340;53.664;9.908;2022-11-25T11:25:27;6.80;99.90
20364;DHT22;10340;53.664;9.908;2022-11-25T11:27:55;6.70;99.90
20364;DHT22;10340;53.664;9.908;2022-11-25T11:30:24;6.70;99.90
20364;DHT22;10340;53.664;9.908;2022-11-25T11:32:58;6.70;99.90
20364;DHT22;10340;53.664;9.908;2022-11-25T11:35:32;6.80;99.90
20364;DHT22;10340;53.664;9.908;2022-11-25T11:38:10;6.80;99.90
20364;DHT22;10340;53.664;9.908;2022-11-25T11:40:46;6.80;99.90
20364;DHT22;10340;53.664;9.908;2022-11-25T11:43:28;6.80;99.90
20364;DHT22;10340;53.664;9.908;2022-11-25T11:46:13;6.90;99.90
20364;DHT22;10340;53.664;9.908;2022-11-25T11:48:47;6.90;99.90
20364;DHT22;10340;53.664;9.908;2022-11-25T11:51:21;6.90;99.90
20364;DHT22;10340;53.664;9.908;2022-11-25T11:53:59;6.90;99.90
20364;DHT22;10340;53.664;9.908;2022-11-25T11:56:37;6.90;99.90
20364;DHT22;10340;53.664;9.908;2022-11-25T11:59:27;6.90;99.90
20364;DHT22;10340;53.664;9.908;2022-11-25T12:02:15;7.00;99.90
20364;DHT22;10340;53.664;9.908;2022-11-25T12:04:48;7.00;99.90
20364;DHT22;10340;53.664;9.908;2022-11-25T12:07:20;7.10;99.90
20364;DHT22;10340;53.664;9.908;2022-11-25T12:09:51;7.10;99.90
20364;DHT22;10340;53.664;9.908;2022-11-25T12:12:23;7.20;99.90
20364;DHT22;10340;53.664;9.908;2022-11-25T12:15:01;7.20;99.90
20364;DHT22;10340;53.664;9.908;2022-11-25T12:17:34;7.30;99.90
20364;DHT22;10340;53.664;9.908;2022-11-25T12:20:12;7.40;99.90
20364;DHT22;10340;53.664;9.908;2022-11-25T12:22:45;7.40;99.90
20364;DHT22;10340;53.664;9.908;2022-11-25T12:25:19;7.50;99.90
20364;DHT22;10340;53.664;9.908;2022-11-25T12:27:52;7.50;99.90
20364;DHT22;10340;53.664;9.908;2022-11-25T12:30:23;7.50;99.90
20364;DHT22;10340;53.664;9.908;2022-11-25T12:33:01;7.50;99.90
20364;DHT22;10340;53.664;9.908;2022-11-25T12:35:47;7.40;99.90
20364;DHT22;10340;53.664;9.908;2022-11-25T12:38:24;7.60;99.90
20364;DHT22;10340;53.664;9.908;2022-11-25T12:40:58;7.60;99.90
20364;DHT22;10340;53.664;9.908;2022-11-25T12:43:36;7.60;99.90
20364;DHT22;10340;53.664;9.908;2022-11-25T12:46:14;7.60;99.90
20364;DHT22;10340;53.664;9.908;2022-11-25T12:48:44;7.60;99.90
20364;DHT22;10340;53.664;9.908;2022-11-25T12:51:23;7.70;99.90
20364;DHT22;10340;53.664;9.908;2022-11-25T12:54:02;7.70;99.90
20364;DHT22;10340;53.664;9.908;2022-11-25T12:56:42;7.80;99.90
20364;DHT22;10340;53.664;9.908;2022-11-25T12:59:37;7.80;99.90
20364;DHT22;10340;53.664;9.908;2022-11-25T13:02:22;7.80;99.90
20364;DHT22;10340;53.664;9.908;2022-11-25T13:05:26;7.80;99.90
20364;DHT22;10340;53.664;9.908;2022-11-25T13:08:08;7.80;99.90
20364;DHT22;10340;53.664;9.908;2022-11-25T13:10:59;7.70;99.90
20364;DHT22;10340;53.664;9.908;2022-11-25T13:13:40;7.80;99.90
20364;DHT22;10340;53.664;9.908;2022-11-25T13:16:15;7.80;99.90
20364;DHT22;10340;53.664;9.908;2022-11-25T13:18:43;7.90;99.90
20364;DHT22;10340;53.664;9.908;2022-11-25T13:21:12;7.90;99.90
20364;DHT22;10340;53.664;9.908;2022-11-25T13:23:44;7.90;99.90
20364;DHT22;10340;53.664;9.908;2022-11-25T13:26:35;7.90;99.90
20364;DHT22;10340;53.664;9.908;2022-11-25T13:32:24;7.90;99.90
20364;DHT22;10340;53.664;9.908;2022-11-25T13:38:36;8.00;99.90
20364;DHT22;10340;53.664;9.908;2022-11-25T13:41:23;8.00;99.90
20364;DHT22;10340;53.664;9.908;2022-11-25T13:43:55;8.00;99.90
20364;DHT22;10340;53.664;9.908;2022-11-25T13:46:28;8.10;99.90
20364;DHT22;10340;53.664;9.908;2022-11-25T13:49:01;8.10;99.90
20364;DHT22;10340;53.664;9.908;2022-11-25T13:51:28;8.10;99.90
20364;DHT22;10340;53.664;9.908;2022-11-25T13:53:58;8.10;99.90
20364;DHT22;10340;53.664;9.908;2022-11-25T13:56:27;8.10;99.90
20364;DHT22;10340;53.664;9.908;2022-11-25T13:59:18;8.10;99.90
20364;DHT22;10340;53.664;9.908;2022-11-25T14:01:52;8.20;99.90
20364;DHT22;10340;53.664;9.908;2022-11-25T14:04:38;8.20;99.90
20364;DHT22;10340;53.664;9.908;2022-11-25T14:07:15;8.20;99.90
20364;DHT22;10340;53.664;9.908;2022-11-25T14:10:05;8.20;99.90
20364;DHT22;10340;53.664;9.908;2022-11-25T14:12:59;8.20;99.90
20364;DHT22;10340;53.664;9.908;2022-11-25T14:15:43;8.30;99.90
20364;DHT22;10340;53.664;9.908;2022-11-25T14:18:27;8.30;99.90
20364;DHT22;10340;53.664;9.908;2022-11-25T14:21:00;8.30;99.90
20364;DHT22;10340;53.664;9.908;2022-11-25T14:24:01;8.30;99.90
20364;DHT22;10340;53.664;9.908;2022-11-25T14:26:33;8.40;99.90
20364;DHT22;10340;53.664;9.908;2022-11-25T14:29:10;8.40;99.90
20364;DHT22;10340;53.664;9.908;2022-11-25T14:31:43;8.40;99.90
20364;DHT22;10340;53.664;9.908;2022-11-25T14:34:14;8.40;99.90
20364;DHT22;10340;53.664;9.908;2022-11-25T14:36:48;8.50;99.90
20364;DHT22;10340;53.664;9.908;2022-11-25T14:39:21;8.40;99.90
20364;DHT22;10340;53.664;9.908;2022-11-25T14:41:55;8.40;99.90
20364;DHT22;10340;53.664;9.908;2022-11-25T14:44:25;8.40;99.90
20364;DHT22;10340;53.664;9.908;2022-11-25T14:46:57;8.50;99.90
20364;DHT22;10340;53.664;9.908;2022-11-25T14:49:43;8.40;99.90
20364;DHT22;10340;53.664;9.908;2022-11-25T14:52:15;8.40;99.90
20364;DHT22;10340;53.664;9.908;2022-11-25T14:54:43;8.40;99.90
20364;DHT22;10340;53.664;9.908;2022-11-25T14:57:11;8.40;99.90
20364;DHT22;10340;53.664;9.908;2022-11-25T14:59:39;8.40;99.90
20364;DHT22;10340;53.664;9.908;2022-11-25T15:02:22;8.40;99.90
20364;DHT22;10340;53.664;9.908;2022-11-25T15:04:50;8.40;99.90
20364;DHT22;10340;53.664;9.908;2022-11-25T15:07:21;8.40;99.90
20364;DHT22;10340;53.664;9.908;2022-11-25T15:09:48;8.40;99.90
20364;DHT22;10340;53.664;9.908;2022-11-25T15:12:18;8.40;99.90
20364;DHT22;10340;53.664;9.908;2022-11-25T15:14:52;8.40;99.90
20364;DHT22;10340;53.664;9.908;2022-11-25T15:17:25;8.40;99.90
20364;DHT22;10340;53.664;9.908;2022-11-25T15:19:54;8.40;99.90
20364;DHT22;10340;53.664;9.908;2022-11-25T15:22:23;8.40;99.90
20364;DHT22;10340;53.664;9.908;2022-11-25T15:24:52;8.40;99.90
20364;DHT22;10340;53.664;9.908;2022-11-25T15:27:21;8.40;99.90
20364;DHT22;10340;53.664;9.908;2022-11-25T15:29:50;8.40;99.90
20364;DHT22;10340;53.664;9.908;2022-11-25T15:32:18;8.40;99.90
20364;DHT22;10340;53.664;9.908;2022-11-25T15:34:46;8.40;99.90
20364;DHT22;10340;53.664;9.908;2022-11-25T15:37:14;8.40;99.90
20364;DHT22;10340;53.664;9.908;2022-11-25T15:39:43;8.40;99.90
20364;DHT22;10340;53.664;9.908;2022-11-25T15:42:15;8.40;99.90
20364;DHT22;10340;53.664;9.908;2022-11-25T15:44:47;8.40;99.90
20364;DHT22;10340;53.664;9.908;2022-11-25T15:47:20;8.40;99.90
20364;DHT22;10340;53.664;9.908;2022-11-25T15:49:52;8.40;99.90
20364;DHT22;10340;53.664;9.908;2022-11-25T15:52:22;8.40;99.90
20364;DHT22;10340;53.664;9.908;2022-11-25T15:54:54;8.30;99.90
20364;DHT22;10340;53.664;9.908;2022-11-25T15:57:27;8.40;99.90
20364;DHT22;10340;53.664;9.908;2022-11-25T16:00:12;8.40;99.90
20364;DHT22;10340;53.664;9.908;2022-11-25T16:02:50;8.40;99.90
20364;DHT22;10340;53.664;9.908;2022-11-25T16:05:27;8.40;99.90
20364;DHT22;10340;53.664;9.908;2022-11-25T16:10:51;8.40;99.90
20364;DHT22;10340;53.664;9.908;2022-11-25T16:13:30;8.40;99.90
20364;DHT22;10340;53.664;9.908;2022-11-25T16:16:10;8.50;99.90
20364;DHT22;10340;53.664;9.908;2022-11-25T16:18:41;8.50;99.90
20364;DHT22;10340;53.664;9.908;2022-11-25T16:21:11;8.50;99.90
20364;DHT22;10340;53.664;9.908;2022-11-25T16:23:42;8.50;99.90